Time;durP1;ratioP1;P1;durP2;ratioP2;P2;SDS_P1;SDS_P2;PMS_P1;PMS_P2;Temp;Humidity;BMP_temperature;BMP_pressure;BME280_temperature;BME280_humidity;BME280_pressure;Samples;Min_cycle;Max_cycle;Signal;HPM_P1;HPM_P2
2022/02/26 00:01:44;;;;;;;5.72;1.40;;;;;;;6.57;100.00;101646.44;5027571;28;20098;-92
2022/02/26 00:04:10;;;;;;;4.05;1.08;;;;;;;6.42;100.00;101612.97;5030542;28;20089;-88
2022/02/26 00:06:38;;;;;;;4.50;1.45;;;;;;;6.45;100.00;101610.03;5030390;28;20647;-91
2022/02/26 00:09:07;;;;;;;1.80;0.80;;;;;;;6.37;100.00;101602.66;5084748;28;20509;-89
2022/02/26 00:11:33;;;;;;;3.28;1.30;;;;;;;6.57;100.00;101627.72;5070569;28;20044;-89
2022/02/26 00:13:59;;;;;;;5.63;1.92;;;;;;;6.61;100.00;101626.47;5037833;28;20032;-87
2022/02/26 00:16:27;;;;;;;4.05;1.13;;;;;;;6.68;100.00;101635.69;5022043;28;20029;-87
2022/02/26 00:18:55;;;;;;;2.63;0.73;;;;;;;6.62;100.00;101609.47;5071144;28;20032;-88
2022/02/26 00:21:22;;;;;;;5.90;1.35;;;;;;;6.69;100.00;101625.84;5051743;28;20033;-87
2022/02/26 00:23:48;;;;;;;0.70;0.70;;;;;;;6.56;100.00;101621.53;5052063;28;20029;-87
2022/02/26 00:26:14;;;;;;;3.08;1.10;;;;;;;6.36;100.00;101600.97;5081103;28;20123;-89
2022/02/26 00:28:39;;;;;;;1.00;0.65;;;;;;;6.47;100.00;101619.63;5070272;28;20040;-88
2022/02/26 00:31:05;;;;;;;3.80;1.02;;;;;;;6.56;100.00;101634.91;5050568;28;20490;-91
2022/02/26 00:33:37;;;;;;;6.47;1.65;;;;;;;6.67;100.00;101633.13;5047309;28;20470;-89
2022/02/26 00:36:03;;;;;;;6.47;1.42;;;;;;;6.73;100.00;101621.94;5033248;28;20045;-87
2022/02/26 00:38:29;;;;;;;2.17;1.10;;;;;;;6.44;100.00;101585.16;5048335;28;20391;-93
2022/02/26 00:40:55;;;;;;;2.45;1.30;;;;;;;6.60;100.00;101617.63;5063296;28;20135;-88
2022/02/26 00:43:24;;;;;;;2.28;0.85;;;;;;;6.50;100.00;101613.19;5052278;28;20071;-89
2022/02/26 00:45:50;;;;;;;4.80;1.33;;;;;;;6.25;100.00;101579.66;5054231;28;20036;-89
2022/02/26 00:49:46;;;;;;;2.25;1.00;;;;;;;6.48;100.00;101618.63;5052624;28;20043;-90
2022/02/26 00:51:05;;;;;;;1.23;0.95;;;;;;;6.36;100.00;101588.47;5062666;28;20052;-88
2022/02/26 00:53:31;;;;;;;1.63;0.90;;;;;;;6.62;100.00;101619.34;5033194;28;20072;-87
2022/02/26 00:55:58;;;;;;;1.52;0.90;;;;;;;6.54;100.00;101590.59;5053970;28;20471;-88
2022/02/26 00:58:27;;;;;;;1.73;0.90;;;;;;;6.65;100.00;101619.06;5067216;28;20501;-87
2022/02/26 01:00:53;;;;;;;5.47;1.10;;;;;;;6.75;100.00;101610.16;5057258;28;20029;-89
2022/02/26 01:03:19;;;;;;;2.85;1.02;;;;;;;6.92;100.00;101607.84;5046244;28;20037;-88
2022/02/26 01:05:44;;;;;;;3.05;1.38;;;;;;;7.01;100.00;101610.59;5037624;28;20075;-87
2022/02/26 01:08:10;;;;;;;4.97;1.75;;;;;;;6.99;100.00;101593.00;5063306;28;20467;-90
2022/02/26 01:10:35;;;;;;;4.88;1.25;;;;;;;7.05;100.00;101609.34;5030724;28;20044;-88
2022/02/26 01:13:01;;;;;;;2.55;0.98;;;;;;;6.82;100.00;101571.19;5036144;28;20588;-87
2022/02/26 01:15:27;;;;;;;1.38;0.68;;;;;;;7.03;100.00;101603.25;5048406;28;20883;-88
2022/02/26 01:17:52;;;;;;;2.08;0.80;;;;;;;6.90;100.00;101575.88;5029750;28;20043;-87
2022/02/26 01:20:24;;;;;;;2.67;0.98;;;;;;;7.10;100.00;101608.94;5028814;28;20024;-88
2022/02/26 01:22:57;;;;;;;1.75;0.93;;;;;;;6.90;100.00;101589.25;5043415;28;20037;-88
2022/02/26 01:25:26;;;;;;;7.13;1.23;;;;;;;7.05;100.00;101605.81;5049828;28;20036;-87
2022/02/26 01:27:51;;;;;;;3.35;0.90;;;;;;;6.90;100.00;101586.59;5031192;28;20449;-87
2022/02/26 01:30:17;;;;;;;7.85;1.50;;;;;;;7.06;100.00;101599.47;5049398;28;20041;-88
2022/02/26 01:32:44;;;;;;;4.13;1.08;;;;;;;6.90;100.00;101573.22;5068069;28;20036;-88
2022/02/26 01:35:10;;;;;;;8.77;1.98;;;;;;;6.96;100.00;101591.44;5048629;28;20478;-88
2022/02/26 01:37:36;;;;;;;4.15;1.25;;;;;;;6.92;100.00;101584.63;5026522;28;20082;-87
2022/02/26 01:40:03;;;;;;;4.45;1.20;;;;;;;6.83;100.00;101577.41;5044603;28;20087;-87
2022/02/26 01:42:28;;;;;;;7.13;1.42;;;;;;;6.91;100.00;101592.81;5030516;28;20040;-88
2022/02/26 01:44:54;;;;;;;7.63;1.50;;;;;;;6.88;100.00;101583.22;5030766;28;20391;-86
2022/02/26 01:47:20;;;;;;;7.30;1.55;;;;;;;6.83;100.00;101572.06;5050463;28;20082;-88
2022/02/26 01:49:49;;;;;;;5.00;1.60;;;;;;;6.80;100.00;101561.63;5045068;28;20047;-87
2022/02/26 01:52:18;;;;;;;2.83;1.25;;;;;;;6.87;100.00;101569.97;5034242;28;20036;-89
2022/02/26 01:54:45;;;;;;;6.70;1.23;;;;;;;6.58;100.00;101512.69;5041397;28;20044;-89
2022/02/26 01:57:11;;;;;;;4.28;1.60;;;;;;;6.87;100.00;101551.25;5058343;28;20475;-90
2022/02/26 01:59:37;;;;;;;5.55;1.83;;;;;;;6.94;100.00;101555.94;5025507;28;20036;-87
2022/02/26 02:02:03;;;;;;;4.43;1.60;;;;;;;6.93;100.00;101561.41;5031640;28;20368;-88
2022/02/26 02:04:29;;;;;;;3.88;1.00;;;;;;;6.93;100.00;101554.25;5044822;28;20039;-87
2022/02/26 02:06:55;;;;;;;3.00;1.15;;;;;;;7.05;100.00;101549.66;5034084;28;20032;-87
2022/02/26 02:09:20;;;;;;;2.70;0.93;;;;;;;7.04;100.00;101523.91;5031328;28;20047;-87
2022/02/26 02:11:46;;;;;;;1.17;0.90;;;;;;;7.14;100.00;101539.97;5058554;28;20437;-88
2022/02/26 02:14:12;;;;;;;3.60;0.90;;;;;;;7.04;100.00;101518.56;5044274;28;20029;-88
2022/02/26 02:16:37;;;;;;;3.38;1.30;;;;;;;7.05;100.00;101523.75;5059355;28;20068;-87
2022/02/26 02:19:05;;;;;;;3.42;1.17;;;;;;;6.97;100.00;101517.41;5049100;28;20398;-88
2022/02/26 02:21:34;;;;;;;2.15;0.93;;;;;;;6.87;100.00;101512.00;5058661;28;20032;-89
2022/02/26 02:24:00;;;;;;;5.05;1.00;;;;;;;6.76;100.00;101488.88;5041949;28;20064;-87
2022/02/26 02:26:27;;;;;;;3.15;1.55;;;;;;;6.85;100.00;101503.25;5078408;28;20125;-88
2022/02/26 02:28:53;;;;;;;5.95;1.50;;;;;;;6.75;100.00;101489.03;5044091;28;20028;-88
2022/02/26 02:31:18;;;;;;;2.42;1.15;;;;;;;6.85;100.00;101489.88;5047483;28;20063;-89
2022/02/26 02:33:46;;;;;;;3.30;1.70;;;;;;;6.93;100.00;101490.09;5037937;28;20033;-87
2022/02/26 02:36:12;;;;;;;3.67;1.38;;;;;;;6.96;100.00;101483.59;5054775;28;20117;-88
2022/02/26 02:38:39;;;;;;;3.80;1.08;;;;;;;6.87;100.00;101450.50;5047229;28;20032;-86
2022/02/26 02:41:04;;;;;;;4.90;1.20;;;;;;;7.07;100.00;101467.50;5046083;28;20063;-87
2022/02/26 02:43:33;;;;;;;3.80;1.20;;;;;;;6.78;100.00;101424.59;5049539;28;20056;-87
2022/02/26 02:45:59;;;;;;;7.25;1.27;;;;;;;7.15;100.00;101482.84;5043926;28;20039;-87
2022/02/26 02:48:25;;;;;;;1.88;0.82;;;;;;;7.05;100.00;101454.25;5032113;28;20036;-87
2022/02/26 02:50:53;;;;;;;3.20;0.90;;;;;;;7.15;100.00;101456.13;5026496;28;20036;-86
2022/02/26 02:53:19;;;;;;;2.22;0.90;;;;;;;6.98;100.00;101429.00;5042346;28;20048;-89
2022/02/26 02:55:46;;;;;;;5.93;1.42;;;;;;;7.15;100.00;101458.78;5055083;28;20036;-88
2022/02/26 02:58:12;;;;;;;0.73;0.60;;;;;;;7.18;100.00;101459.34;5060071;28;20036;-89
2022/02/26 03:00:38;;;;;;;1.85;0.82;;;;;;;7.16;100.00;101447.94;5045363;28;20421;-88
2022/02/26 03:03:06;;;;;;;2.83;0.80;;;;;;;7.23;100.00;101458.94;5046380;28;22064;-88
2022/02/26 03:05:32;;;;;;;7.05;1.77;;;;;;;7.26;100.00;101459.50;5061403;28;20474;-89
2022/02/26 03:07:59;;;;;;;0.95;0.73;;;;;;;7.31;100.00;101467.13;5033657;28;20048;-87
2022/02/26 03:10:25;;;;;;;5.30;1.05;;;;;;;7.31;100.00;101444.88;5044658;28;20141;-87
2022/02/26 03:12:52;;;;;;;1.73;1.10;;;;;;;7.40;100.00;101460.94;5040086;28;20495;-88
2022/02/26 03:15:19;;;;;;;2.58;1.20;;;;;;;7.33;100.00;101441.09;5047060;28;20033;-87
2022/02/26 03:17:45;;;;;;;7.00;1.40;;;;;;;7.27;100.00;101438.94;5061307;28;20373;-87
2022/02/26 03:20:11;;;;;;;5.15;1.20;;;;;;;7.19;100.00;101423.59;5038922;28;20115;-89
2022/02/26 03:22:36;;;;;;;3.25;1.58;;;;;;;7.29;100.00;101433.47;5029908;28;20039;-89
2022/02/26 03:25:03;;;;;;;3.65;0.88;;;;;;;7.22;100.00;101436.72;5047574;28;20036;-86
2022/02/26 03:27:28;;;;;;;4.65;1.20;;;;;;;7.21;100.00;101429.66;5043809;28;20048;-87
2022/02/26 03:29:54;;;;;;;1.55;0.70;;;;;;;7.21;100.00;101434.16;5047403;28;20036;-87
2022/02/26 03:32:20;;;;;;;1.45;0.70;;;;;;;7.22;100.00;101430.50;5059133;28;20044;-87
2022/02/26 03:34:45;;;;;;;4.30;1.15;;;;;;;7.24;100.00;101436.56;5044826;28;20127;-87
2022/02/26 03:37:11;;;;;;;2.15;1.15;;;;;;;7.15;100.00;101419.50;5029097;28;20368;-87
2022/02/26 03:39:37;;;;;;;3.22;1.50;;;;;;;7.16;100.00;101412.31;5038217;28;20036;-87
2022/02/26 03:42:07;;;;;;;2.53;0.80;;;;;;;7.05;100.00;101395.41;5027452;28;20451;-87
2022/02/26 03:44:34;;;;;;;2.97;1.02;;;;;;;7.14;100.00;101400.91;5024055;28;20033;-90
2022/02/26 03:47:00;;;;;;;4.60;0.90;;;;;;;7.08;100.00;101390.78;5026766;28;20025;-88
2022/02/26 03:49:27;;;;;;;2.50;1.00;;;;;;;7.03;100.00;101389.34;5043261;28;20029;-88
2022/02/26 03:51:53;;;;;;;3.50;0.82;;;;;;;6.94;100.00;101374.16;5062710;28;20025;-89
2022/02/26 03:54:19;;;;;;;1.80;1.00;;;;;;;6.94;100.00;101371.47;5045577;28;20031;-88
2022/02/26 03:56:45;;;;;;;5.72;1.30;;;;;;;7.05;100.00;101382.03;5044086;28;20582;-87
2022/02/26 03:59:10;;;;;;;5.28;1.83;;;;;;;7.16;100.00;101382.91;5050499;28;20041;-87
2022/02/26 04:01:37;;;;;;;8.05;1.30;;;;;;;7.19;100.00;101390.66;5051730;28;20044;-87
2022/02/26 04:04:03;;;;;;;6.90;1.20;;;;;;;7.13;100.00;101361.78;5067863;28;20044;-87
2022/02/26 04:06:29;;;;;;;4.15;1.55;;;;;;;7.20;100.00;101365.63;5036285;28;20039;-88
2022/02/26 04:08:54;;;;;;;2.28;1.92;;;;;;;7.04;99.60;101332.22;5043325;28;20028;-89
2022/02/26 04:11:20;;;;;;;6.65;0.93;;;;;;;7.12;99.37;101341.38;5053728;28;20040;-87
2022/02/26 04:13:46;;;;;;;3.03;1.23;;;;;;;7.18;100.00;101346.19;5053016;28;20141;-90
2022/02/26 04:16:12;;;;;;;3.15;0.82;;;;;;;7.00;100.00;101324.63;5050142;28;20037;-87
2022/02/26 04:18:37;;;;;;;1.92;1.13;;;;;;;6.90;99.95;101295.19;5051450;28;20107;-87
2022/02/26 04:21:03;;;;;;;2.70;0.93;;;;;;;6.79;99.52;101284.63;5047911;28;20045;-87
2022/02/26 04:23:29;;;;;;;6.50;1.52;;;;;;;6.93;99.35;101304.75;5047074;28;20078;-89
2022/02/26 04:25:55;;;;;;;1.25;0.93;;;;;;;7.16;99.36;101334.78;5028391;28;20056;-88
2022/02/26 04:28:20;;;;;;;3.60;1.10;;;;;;;6.98;98.89;101300.69;5057674;28;20068;-87
2022/02/26 04:30:48;;;;;;;5.68;1.52;;;;;;;7.11;98.92;101312.94;5028334;28;20032;-87
2022/02/26 04:33:14;;;;;;;2.97;0.90;;;;;;;7.07;99.96;101311.56;5062088;28;20044;-87
2022/02/26 04:35:40;;;;;;;3.65;1.10;;;;;;;6.97;100.00;101290.97;5059544;28;20093;-87
2022/02/26 04:38:06;;;;;;;3.33;1.15;;;;;;;7.02;100.00;101291.41;5044963;28;20025;-86
2022/02/26 04:40:32;;;;;;;1.85;1.10;;;;;;;6.85;99.60;101254.66;5044525;28;20040;-87
2022/02/26 04:42:58;;;;;;;6.80;1.35;;;;;;;7.25;99.49;101301.81;5038249;28;20127;-89
2022/02/26 04:45:24;;;;;;;5.97;1.05;;;;;;;6.91;99.86;101256.78;5052431;28;20539;-87
2022/02/26 04:47:50;;;;;;;8.18;1.13;;;;;;;7.07;99.88;101260.75;5049497;28;20072;-89
2022/02/26 04:50:16;;;;;;;2.45;1.02;;;;;;;7.22;99.31;101286.94;5036029;28;20486;-88
2022/02/26 04:52:42;;;;;;;6.95;1.77;;;;;;;7.31;99.82;101293.25;5030984;28;20044;-91
2022/02/26 04:55:09;;;;;;;3.95;1.55;;;;;;;7.13;99.25;101239.63;5033104;28;20388;-87
2022/02/26 04:57:37;;;;;;;4.63;1.00;;;;;;;6.96;99.49;101213.56;5029087;28;20044;-87
2022/02/26 05:00:05;;;;;;;1.83;1.02;;;;;;;7.34;99.60;101276.91;5033314;28;20445;-87
2022/02/26 05:02:30;;;;;;;4.97;1.40;;;;;;;7.26;99.52;101261.56;5041839;28;20032;-88
2022/02/26 05:04:56;;;;;;;3.92;1.00;;;;;;;7.42;99.61;101278.88;5028774;28;20101;-87
2022/02/26 05:07:23;;;;;;;4.50;0.95;;;;;;;7.36;100.00;101269.59;5046210;28;20036;-89
2022/02/26 05:09:49;;;;;;;1.27;0.90;;;;;;;7.27;100.00;101267.75;5053351;28;20063;-88
2022/02/26 05:12:15;;;;;;;4.43;1.33;;;;;;;7.30;100.00;101251.41;5048788;28;20063;-87
2022/02/26 05:14:40;;;;;;;3.05;0.82;;;;;;;7.23;100.00;101247.66;5047078;28;20386;-87
2022/02/26 05:17:06;;;;;;;4.05;0.95;;;;;;;7.18;100.00;101256.09;5044056;28;20036;-87
2022/02/26 05:19:32;;;;;;;4.75;0.93;;;;;;;7.19;100.00;101260.44;5034469;28;20044;-87
2022/02/26 05:21:57;;;;;;;5.68;1.52;;;;;;;7.37;99.92;101268.59;5064192;28;20462;-88
2022/02/26 05:24:23;;;;;;;1.13;0.70;;;;;;;7.34;99.66;101273.41;5030760;28;20486;-89
2022/02/26 05:26:49;;;;;;;6.47;0.95;;;;;;;7.24;100.00;101242.13;5046442;28;20030;-87
2022/02/26 05:29:14;;;;;;;5.13;1.27;;;;;;;7.13;100.00;101254.81;5031472;28;20037;-88
2022/02/26 05:31:40;;;;;;;5.57;1.85;;;;;;;7.21;100.00;101271.00;5054048;28;20021;-87
2022/02/26 05:34:05;;;;;;;5.35;1.38;;;;;;;7.15;100.00;101255.53;5071501;28;20135;-89
2022/02/26 05:36:31;;;;;;;6.35;1.33;;;;;;;7.14;100.00;101254.66;5029456;28;20493;-87
2022/02/26 05:38:57;;;;;;;7.07;1.50;;;;;;;7.15;100.00;101259.03;5029556;28;20218;-87
2022/02/26 05:41:23;;;;;;;3.72;1.30;;;;;;;7.19;99.58;101251.56;5034117;28;20075;-87
2022/02/26 05:43:49;;;;;;;2.95;1.17;;;;;;;7.14;100.00;101241.28;5057816;28;20049;-89
2022/02/26 05:46:15;;;;;;;3.75;0.90;;;;;;;7.21;100.00;101263.81;5049287;28;20033;-87
2022/02/26 05:48:41;;;;;;;3.63;1.00;;;;;;;7.04;100.00;101216.41;5050014;28;20065;-87
2022/02/26 05:51:07;;;;;;;2.67;1.10;;;;;;;7.10;100.00;101234.56;5043691;28;20171;-87
2022/02/26 05:53:33;;;;;;;3.17;1.02;;;;;;;7.19;100.00;101240.88;5048359;28;20051;-88
2022/02/26 05:55:58;;;;;;;1.70;1.08;;;;;;;7.25;100.00;101237.63;5041182;28;20258;-87
2022/02/26 05:58:24;;;;;;;1.60;0.80;;;;;;;7.28;100.00;101248.06;5041072;28;20044;-87
2022/02/26 06:00:50;;;;;;;4.53;0.90;;;;;;;7.10;100.00;101206.97;5056785;28;20058;-87
2022/02/26 06:03:16;;;;;;;2.75;1.20;;;;;;;7.29;99.87;101225.66;5027865;28;20036;-90
2022/02/26 06:05:42;;;;;;;5.13;1.73;;;;;;;7.38;99.62;101227.50;5056989;28;20423;-89
2022/02/26 06:08:08;;;;;;;4.85;1.27;;;;;;;7.43;98.79;101225.22;5044883;28;20101;-87
2022/02/26 06:10:33;;;;;;;3.13;1.05;;;;;;;7.23;98.79;101183.44;5031321;28;20044;-87
2022/02/26 06:12:59;;;;;;;4.35;1.05;;;;;;;7.39;98.96;101196.22;5046333;28;20036;-89
2022/02/26 06:15:25;;;;;;;3.67;1.05;;;;;;;7.38;99.22;101214.13;5044527;28;20033;-89
2022/02/26 06:17:51;;;;;;;14.70;1.00;;;;;;;7.34;99.14;101193.97;5023885;28;20114;-89
2022/02/26 06:20:16;;;;;;;1.60;0.95;;;;;;;7.16;99.72;101182.34;5053255;28;20036;-88
2022/02/26 06:22:42;;;;;;;2.60;0.93;;;;;;;7.05;100.00;101197.53;5047441;28;20028;-89
2022/02/26 06:25:08;;;;;;;3.90;1.17;;;;;;;7.05;100.00;101199.38;5046611;28;20025;-88
2022/02/26 06:27:38;;;;;;;4.88;0.98;;;;;;;7.01;100.00;101185.47;5044952;28;20085;-88
2022/02/26 06:30:06;;;;;;;5.68;1.05;;;;;;;7.02;100.00;101181.78;5048225;28;20330;-88
2022/02/26 06:32:32;;;;;;;2.60;0.90;;;;;;;7.03;100.00;101178.13;5028826;28;20036;-88
2022/02/26 06:34:57;;;;;;;0.70;0.70;;;;;;;6.94;100.00;101167.44;5045403;28;20816;-87
2022/02/26 06:37:23;;;;;;;2.92;1.27;;;;;;;7.01;100.00;101172.09;5057825;28;20413;-87
2022/02/26 06:39:49;;;;;;;4.60;1.65;;;;;;;6.98;99.97;101150.97;5024887;28;20044;-89
2022/02/26 06:42:14;;;;;;;5.55;1.77;;;;;;;7.16;99.13;101156.44;5035198;28;20368;-88
2022/02/26 06:44:40;;;;;;;5.75;2.55;;;;;;;7.15;98.98;101124.50;5028940;28;20422;-88
2022/02/26 06:47:06;;;;;;;3.08;1.38;;;;;;;7.29;98.04;101152.59;5046569;28;20428;-89
2022/02/26 06:49:31;;;;;;;2.47;0.90;;;;;;;7.43;97.29;101149.44;5030885;28;20402;-90
2022/02/26 06:51:57;;;;;;;3.78;1.48;;;;;;;7.60;95.72;101134.47;5029812;28;20016;-88
2022/02/26 06:54:23;;;;;;;2.42;0.98;;;;;;;7.51;95.54;101151.41;5050978;28;20510;-89
2022/02/26 06:56:49;;;;;;;4.00;1.15;;;;;;;7.39;96.28;101154.25;5043022;28;20482;-89
2022/02/26 06:59:14;;;;;;;1.85;1.20;;;;;;;7.02;96.64;101114.09;5060428;28;20035;-88
2022/02/26 07:01:41;;;;;;;2.15;0.93;;;;;;;7.16;97.24;101137.69;5036321;28;20028;-88
2022/02/26 07:04:07;;;;;;;4.88;1.02;;;;;;;7.26;96.59;101143.88;5043804;28;20028;-89
2022/02/26 07:06:33;;;;;;;4.07;1.45;;;;;;;7.45;95.78;101153.66;5045689;28;20387;-87
2022/02/26 07:08:59;;;;;;;2.97;1.08;;;;;;;7.40;95.27;101155.09;5024365;28;20064;-88
2022/02/26 07:11:24;;;;;;;3.75;1.52;;;;;;;7.49;96.14;101160.44;5022012;28;20110;-88
2022/02/26 07:13:50;;;;;;;6.93;1.13;;;;;;;7.21;95.94;101122.06;5056597;28;20075;-88
2022/02/26 07:16:16;;;;;;;1.48;0.93;;;;;;;7.32;97.48;101139.78;5048465;28;20214;-88
2022/02/26 07:18:42;;;;;;;5.25;1.05;;;;;;;7.34;97.45;101129.78;5061332;28;20105;-90
2022/02/26 07:21:07;;;;;;;4.00;1.15;;;;;;;7.24;97.36;101118.25;5057858;28;20028;-88
2022/02/26 07:23:33;;;;;;;9.48;2.78;;;;;;;7.42;98.26;101135.25;5031141;28;20043;-89
2022/02/26 07:26:00;;;;;;;4.80;1.80;;;;;;;7.44;98.61;101141.28;5030724;28;20028;-89
2022/02/26 07:28:25;;;;;;;5.25;1.98;;;;;;;7.53;98.59;101144.09;5030853;28;20042;-88
2022/02/26 07:30:52;;;;;;;11.40;2.78;;;;;;;7.45;98.34;101134.94;5032331;28;20131;-88
2022/02/26 07:33:18;;;;;;;8.88;2.25;;;;;;;7.51;98.18;101138.03;5056011;28;20040;-87
2022/02/26 07:35:43;;;;;;;5.72;1.40;;;;;;;7.53;98.42;101146.75;5047954;28;20047;-88
2022/02/26 07:38:09;;;;;;;1.90;1.15;;;;;;;7.57;98.49;101146.31;5058844;28;20072;-88
2022/02/26 07:40:36;;;;;;;4.93;1.30;;;;;;;7.58;98.17;101142.66;5046413;28;20028;-88
2022/02/26 07:43:02;;;;;;;3.35;1.13;;;;;;;7.61;98.10;101149.53;5042545;28;20028;-88
2022/02/26 07:45:28;;;;;;;4.50;1.25;;;;;;;7.55;97.55;101134.91;5028968;28;20044;-88
2022/02/26 07:47:53;;;;;;;3.05;1.27;;;;;;;7.58;97.24;101133.78;5048485;28;20098;-87
2022/02/26 07:50:20;;;;;;;4.10;1.33;;;;;;;7.63;97.41;101139.53;5047238;28;21169;-89
2022/02/26 07:52:45;;;;;;;3.80;1.08;;;;;;;7.64;96.52;101138.53;5040332;28;20123;-89
2022/02/26 07:55:11;;;;;;;1.27;1.13;;;;;;;7.35;96.75;101088.66;5028608;28;20135;-88
2022/02/26 07:57:37;;;;;;;9.63;2.00;;;;;;;7.61;96.24;101120.09;5028428;28;20037;-90
2022/02/26 08:00:04;;;;;;;9.00;1.70;;;;;;;7.59;96.33;101112.22;5043167;28;20041;-88
2022/02/26 08:02:30;;;;;;;6.68;1.48;;;;;;;7.49;95.03;101098.88;5026801;28;20784;-87
2022/02/26 08:04:55;;;;;;;4.85;1.80;;;;;;;7.76;93.14;101099.06;5039020;28;20029;-89
2022/02/26 08:07:21;;;;;;;9.00;1.70;;;;;;;7.72;92.62;101085.94;5045941;28;20029;-87
2022/02/26 08:09:47;;;;;;;1.35;0.70;;;;;;;7.90;92.41;101120.78;5036497;28;20045;-90
2022/02/26 08:12:13;;;;;;;3.42;1.45;;;;;;;7.66;91.46;101066.97;5045748;28;20474;-89
2022/02/26 08:14:39;;;;;;;4.15;1.33;;;;;;;7.92;91.26;101112.63;5028273;28;20036;-91
2022/02/26 08:17:07;;;;;;;5.45;1.25;;;;;;;7.79;90.53;101075.50;5051157;28;20033;-89
2022/02/26 08:19:34;;;;;;;6.18;1.77;;;;;;;7.88;90.89;101090.66;5038703;28;20064;-89
2022/02/26 08:22:02;;;;;;;8.63;1.10;;;;;;;8.06;90.04;101116.63;5058033;28;20037;-90
2022/02/26 08:24:28;;;;;;;7.35;0.90;;;;;;;8.09;89.57;101102.91;5041639;28;20033;-89
2022/02/26 08:26:54;;;;;;;5.07;1.50;;;;;;;7.94;88.90;101038.34;5045005;28;20103;-89
2022/02/26 08:29:19;;;;;;;6.32;1.42;;;;;;;8.05;88.03;101064.06;5038252;28;20051;-89
2022/02/26 08:31:45;;;;;;;8.82;1.30;;;;;;;8.13;88.68;101081.06;5060129;28;20028;-89
2022/02/26 08:34:11;;;;;;;8.50;1.80;;;;;;;8.18;89.97;101077.91;5050199;28;20056;-90
2022/02/26 08:36:36;;;;;;;3.55;1.23;;;;;;;8.23;89.31;101086.34;5032721;28;20459;-91
2022/02/26 08:39:03;;;;;;;3.85;1.27;;;;;;;8.20;89.80;101067.88;5030141;28;20051;-90
2022/02/26 08:41:28;;;;;;;6.10;1.35;;;;;;;8.30;90.08;101081.19;5051613;28;20364;-88
2022/02/26 08:43:54;;;;;;;2.97;1.10;;;;;;;8.28;90.63;101096.59;5051467;28;20032;-90
2022/02/26 08:46:20;;;;;;;5.88;1.92;;;;;;;8.20;91.22;101081.28;5052832;28;20487;-88
2022/02/26 08:48:46;;;;;;;5.57;1.45;;;;;;;8.24;91.63;101106.78;5047322;28;20123;-89
2022/02/26 08:51:11;;;;;;;4.55;1.52;;;;;;;8.33;91.67;101083.56;5034565;28;20115;-90
2022/02/26 08:53:43;;;;;;;5.78;2.08;;;;;;;8.14;92.15;101068.50;5036429;28;20454;-90
2022/02/26 08:56:08;;;;;;;14.05;1.98;;;;;;;8.30;92.49;101102.63;5045746;28;20032;-91
2022/02/26 08:58:34;;;;;;;7.50;2.10;;;;;;;8.37;92.08;101088.47;5046932;28;20075;-89
2022/02/26 09:01:00;;;;;;;5.43;1.30;;;;;;;8.36;90.93;101051.97;5050028;28;20085;-92
2022/02/26 09:03:25;;;;;;;7.82;2.17;;;;;;;8.64;89.91;101057.25;5081859;28;20474;-89
2022/02/26 09:05:51;;;;;;;5.78;1.98;;;;;;;8.61;89.65;101037.97;5063592;28;20032;-89
2022/02/26 09:08:17;;;;;;;5.15;1.63;;;;;;;8.59;89.56;101024.69;5048597;28;20029;-90
2022/02/26 09:10:43;;;;;;;23.38;1.88;;;;;;;8.73;89.26;101045.59;5048668;28;20665;-90
2022/02/26 09:13:09;;;;;;;7.03;1.35;;;;;;;8.92;88.70;101074.06;5023143;28;20364;-90
2022/02/26 09:15:35;;;;;;;7.55;1.65;;;;;;;8.96;88.39;101061.16;5031044;28;20052;-89
2022/02/26 09:18:00;;;;;;;5.55;1.35;;;;;;;9.22;86.46;101064.66;5026734;28;20028;-88
2022/02/26 09:20:26;;;;;;;6.75;2.28;;;;;;;9.44;84.89;101057.03;5045213;28;20033;-90
2022/02/26 09:22:52;;;;;;;5.82;1.63;;;;;;;9.71;83.48;101065.88;5062188;28;20029;-91
2022/02/26 09:25:18;;;;;;;8.60;2.42;;;;;;;9.55;82.91;101024.56;5050194;28;20024;-91
2022/02/26 09:27:44;;;;;;;5.35;1.40;;;;;;;9.84;81.38;101064.44;5051257;28;20536;-89
2022/02/26 09:30:11;;;;;;;9.23;2.30;;;;;;;9.83;81.42;101052.00;5049463;28;20098;-90
2022/02/26 09:32:37;;;;;;;4.18;1.40;;;;;;;9.41;82.05;101030.53;5063506;28;20028;-90
2022/02/26 09:35:04;;;;;;;10.13;3.25;;;;;;;9.36;83.08;101054.34;5050465;28;20509;-89
2022/02/26 09:37:30;;;;;;;11.02;3.47;;;;;;;9.11;83.88;101046.16;5033325;28;20063;-93
2022/02/26 09:39:59;;;;;;;3.83;1.98;;;;;;;9.26;83.68;101059.81;5049621;28;20100;-90
2022/02/26 09:42:27;;;;;;;1.70;0.82;;;;;;;9.16;83.82;101064.47;5041491;28;20128;-92
2022/02/26 09:44:52;;;;;;;4.60;1.35;;;;;;;9.14;84.02;101071.84;5047132;28;20111;-90
2022/02/26 09:47:18;;;;;;;4.07;1.08;;;;;;;9.17;83.93;101060.78;5037593;28;20124;-90
2022/02/26 09:49:44;;;;;;;7.72;1.40;;;;;;;9.19;84.21;101070.34;5028858;28;20071;-89
2022/02/26 09:52:10;;;;;;;5.32;1.58;;;;;;;8.95;84.44;101052.28;5038655;28;20033;-91
2022/02/26 09:54:35;;;;;;;4.22;1.13;;;;;;;9.11;83.29;101070.31;5061262;28;20025;-89
2022/02/26 09:57:01;;;;;;;3.13;1.40;;;;;;;9.20;83.18;101072.03;5031536;28;20558;-89
2022/02/26 09:59:27;;;;;;;7.68;2.45;;;;;;;9.19;83.23;101067.66;5059030;28;20029;-89
2022/02/26 10:01:57;;;;;;;4.63;0.90;;;;;;;9.75;80.38;101083.34;5051899;28;20474;-90
2022/02/26 10:04:23;;;;;;;11.25;1.88;;;;;;;10.00;78.27;101047.50;5045891;28;20547;-89
2022/02/26 10:06:48;;;;;;;8.43;1.73;;;;;;;10.88;76.13;101051.44;5030776;28;20186;-91
2022/02/26 10:09:15;;;;;;;5.75;2.20;;;;;;;12.56;68.60;101044.69;5045763;28;20072;-89
2022/02/26 10:11:43;;;;;;;4.22;1.95;;;;;;;14.03;62.48;101039.47;5051695;28;20573;-89
2022/02/26 10:14:14;;;;;;;4.53;2.05;;;;;;;13.49;61.85;100981.28;5043381;28;20036;-90
2022/02/26 10:16:53;;;;;;;5.95;2.10;;;;;;;13.11;63.80;101029.16;5065574;28;20081;-88
2022/02/26 10:19:23;;;;;;;9.23;2.47;;;;;;;13.94;60.53;101030.63;5067408;28;20040;-90
2022/02/26 10:21:50;;;;;;;9.90;2.75;;;;;;;12.55;64.58;100981.00;5060632;28;20033;-90
2022/02/26 10:24:16;;;;;;;9.93;2.58;;;;;;;12.69;65.10;101017.94;5062054;28;20025;-91
2022/02/26 10:26:51;;;;;;;8.63;1.77;;;;;;;12.85;65.18;101002.59;5053019;28;20089;-91
2022/02/26 10:29:17;;;;;;;5.75;2.30;;;;;;;12.47;66.21;100981.91;5026174;28;20049;-91
2022/02/26 10:32:03;;;;;;;3.83;1.55;;;;;;;12.07;68.43;100980.41;5065109;28;20036;-91
2022/02/26 10:34:28;;;;;;;9.95;2.05;;;;;;;12.46;66.85;100963.19;5068624;28;20044;-91
2022/02/26 10:37:03;;;;;;;11.13;2.78;;;;;;;13.12;63.52;100891.25;5047512;28;20036;-93
2022/02/26 10:39:39;;;;;;;24.08;2.72;;;;;;;14.25;60.01;100910.50;5050571;28;20604;-90
2022/02/26 10:42:06;;;;;;;3.03;1.75;;;;;;;14.50;58.74;100916.28;5059954;28;20470;-91
2022/02/26 10:44:32;;;;;;;3.35;1.52;;;;;;;15.28;56.73;100948.63;5044076;28;20048;-85
2022/02/26 10:47:15;;;;;;;8.80;2.10;;;;;;;16.16;53.36;100935.06;5069398;28;20028;-84
2022/02/26 10:49:45;;;;;;;6.50;2.08;;;;;;;16.15;52.52;100939.69;5048282;28;20025;-84
2022/02/26 10:52:14;;;;;;;4.10;1.50;;;;;;;16.95;50.48;100933.34;5063542;28;20386;-86
2022/02/26 10:54:41;;;;;;;7.13;2.20;;;;;;;17.06;47.39;100936.22;5044915;28;20032;-86
2022/02/26 10:57:08;;;;;;;8.85;1.77;;;;;;;13.95;57.39;100926.91;5063200;28;20074;-84
2022/02/26 10:59:36;;;;;;;5.35;1.95;;;;;;;12.22;64.00;100921.13;5068317;28;20521;-84
2022/02/26 11:02:02;;;;;;;6.93;2.92;;;;;;;11.35;68.35;100930.31;5036179;28;20037;-82
2022/02/26 11:04:27;;;;;;;8.07;2.40;;;;;;;10.73;71.23;100935.63;5063987;28;20051;-84
2022/02/26 11:06:53;;;;;;;5.38;1.67;;;;;;;10.41;73.59;100940.06;5067464;28;20055;-84
2022/02/26 11:09:23;;;;;;;7.32;1.95;;;;;;;10.39;74.59;100934.00;5063025;28;20029;-84
2022/02/26 11:11:50;;;;;;;8.75;3.20;;;;;;;10.36;75.64;100939.72;5068795;28;20078;-84
2022/02/26 11:14:19;;;;;;;14.98;4.07;;;;;;;10.39;75.77;100946.59;5035178;28;20089;-84
2022/02/26 11:16:45;;;;;;;7.53;2.30;;;;;;;10.74;74.55;100977.63;5068449;28;20115;-85
2022/02/26 11:19:15;;;;;;;9.23;2.47;;;;;;;11.23;72.36;100945.19;5033525;28;20028;-78
2022/02/26 11:21:46;;;;;;;10.02;3.42;;;;;;;12.46;68.51;100961.34;5047474;28;20045;-78
2022/02/26 11:24:12;;;;;;;5.00;1.77;;;;;;;13.53;63.99;100965.53;5033765;28;20028;-79
2022/02/26 11:26:38;;;;;;;5.80;2.53;;;;;;;16.54;54.01;100959.72;5053384;28;20462;-79